sensor_id;sensor_type;location;lat;lon;timestamp;P1;durP1;ratioP1;P2;durP2;ratioP2
25237;SDS011;13185;50.872;5.306;2022-10-16T00:00:34;0.98;;;0.20;;
25237;SDS011;13185;50.872;5.306;2022-10-16T00:03:01;2.15;;;0.40;;
25237;SDS011;13185;50.872;5.306;2022-10-16T00:05:27;4.60;;;0.40;;
25237;SDS011;13185;50.872;5.306;2022-10-16T00:07:52;0.63;;;0.30;;
25237;SDS011;13185;50.872;5.306;2022-10-16T00:10:18;0.90;;;0.20;;
25237;SDS011;13185;50.872;5.306;2022-10-16T00:12:43;0.93;;;0.28;;
25237;SDS011;13185;50.872;5.306;2022-10-16T00:15:09;2.17;;;0.40;;
25237;SDS011;13185;50.872;5.306;2022-10-16T00:17:34;2.17;;;0.43;;
25237;SDS011;13185;50.872;5.306;2022-10-16T00:20:00;1.08;;;0.43;;
25237;SDS011;13185;50.872;5.306;2022-10-16T00:22:26;3.35;;;0.40;;
25237;SDS011;13185;50.872;5.306;2022-10-16T00:24:51;1.20;;;0.40;;
25237;SDS011;13185;50.872;5.306;2022-10-16T00:27:17;1.10;;;0.40;;
25237;SDS011;13185;50.872;5.306;2022-10-16T00:29:43;2.30;;;0.40;;
25237;SDS011;13185;50.872;5.306;2022-10-16T00:32:08;2.05;;;0.30;;
25237;SDS011;13185;50.872;5.306;2022-10-16T00:34:34;3.20;;;0.40;;
25237;SDS011;13185;50.872;5.306;2022-10-16T00:37:00;1.77;;;0.32;;
25237;SDS011;13185;50.872;5.306;2022-10-16T00:39:25;1.00;;;0.38;;
25237;SDS011;13185;50.872;5.306;2022-10-16T00:41:51;1.40;;;0.20;;
25237;SDS011;13185;50.872;5.306;2022-10-16T00:47:09;2.30;;;0.47;;
25237;SDS011;13185;50.872;5.306;2022-10-16T00:49:37;1.45;;;0.30;;
25237;SDS011;13185;50.872;5.306;2022-10-16T00:52:03;2.13;;;0.40;;
25237;SDS011;13185;50.872;5.306;2022-10-16T00:54:29;2.63;;;0.20;;
25237;SDS011;13185;50.872;5.306;2022-10-16T00:56:56;3.67;;;0.30;;
25237;SDS011;13185;50.872;5.306;2022-10-16T00:59:26;2.78;;;0.30;;
25237;SDS011;13185;50.872;5.306;2022-10-16T01:01:53;4.30;;;0.40;;
25237;SDS011;13185;50.872;5.306;2022-10-16T01:04:19;3.88;;;0.63;;
25237;SDS011;13185;50.872;5.306;2022-10-16T01:06:48;1.98;;;0.25;;
25237;SDS011;13185;50.872;5.306;2022-10-16T01:09:51;1.33;;;0.40;;
25237;SDS011;13185;50.872;5.306;2022-10-16T01:17:21;2.15;;;0.40;;
25237;SDS011;13185;50.872;5.306;2022-10-16T01:28:16;0.50;;;0.20;;
25237;SDS011;13185;50.872;5.306;2022-10-16T01:30:44;0.68;;;0.35;;
25237;SDS011;13185;50.872;5.306;2022-10-16T01:33:14;0.52;;;0.15;;
25237;SDS011;13185;50.872;5.306;2022-10-16T01:35:45;2.90;;;0.25;;
25237;SDS011;13185;50.872;5.306;2022-10-16T01:38:17;1.42;;;0.40;;
25237;SDS011;13185;50.872;5.306;2022-10-16T01:40:52;1.92;;;0.40;;
25237;SDS011;13185;50.872;5.306;2022-10-16T01:43:27;2.05;;;0.20;;
25237;SDS011;13185;50.872;5.306;2022-10-16T01:45:57;3.92;;;0.22;;
25237;SDS011;13185;50.872;5.306;2022-10-16T01:48:25;2.95;;;0.30;;
25237;SDS011;13185;50.872;5.306;2022-10-16T01:50:55;1.20;;;0.30;;
25237;SDS011;13185;50.872;5.306;2022-10-16T01:53:26;1.98;;;0.20;;
25237;SDS011;13185;50.872;5.306;2022-10-16T01:55:52;1.33;;;0.25;;
25237;SDS011;13185;50.872;5.306;2022-10-16T01:58:21;1.60;;;0.20;;
25237;SDS011;13185;50.872;5.306;2022-10-16T02:00:49;2.00;;;0.40;;
25237;SDS011;13185;50.872;5.306;2022-10-16T02:03:18;1.15;;;0.28;;
25237;SDS011;13185;50.872;5.306;2022-10-16T02:05:51;2.83;;;0.77;;
25237;SDS011;13185;50.872;5.306;2022-10-16T02:08:19;1.30;;;0.30;;
25237;SDS011;13185;50.872;5.306;2022-10-16T02:10:47;2.45;;;0.47;;
25237;SDS011;13185;50.872;5.306;2022-10-16T02:16:18;1.35;;;0.30;;
25237;SDS011;13185;50.872;5.306;2022-10-16T02:18:43;1.52;;;0.40;;
25237;SDS011;13185;50.872;5.306;2022-10-16T02:21:14;1.10;;;0.35;;
25237;SDS011;13185;50.872;5.306;2022-10-16T02:23:50;0.73;;;0.30;;
25237;SDS011;13185;50.872;5.306;2022-10-16T02:26:26;1.05;;;0.40;;
25237;SDS011;13185;50.872;5.306;2022-10-16T02:28:58;1.50;;;0.40;;
25237;SDS011;13185;50.872;5.306;2022-10-16T02:31:31;0.70;;;0.20;;
25237;SDS011;13185;50.872;5.306;2022-10-16T02:33:59;1.92;;;0.50;;
25237;SDS011;13185;50.872;5.306;2022-10-16T02:36:28;0.57;;;0.40;;
25237;SDS011;13185;50.872;5.306;2022-10-16T02:38:54;5.65;;;0.40;;
25237;SDS011;13185;50.872;5.306;2022-10-16T02:41:21;2.97;;;0.30;;
25237;SDS011;13185;50.872;5.306;2022-10-16T02:43:48;1.10;;;0.35;;
25237;SDS011;13185;50.872;5.306;2022-10-16T02:46:14;1.40;;;0.40;;
25237;SDS011;13185;50.872;5.306;2022-10-16T02:48:39;0.60;;;0.28;;
25237;SDS011;13185;50.872;5.306;2022-10-16T02:51:05;0.85;;;0.38;;
25237;SDS011;13185;50.872;5.306;2022-10-16T02:53:31;1.40;;;0.47;;
25237;SDS011;13185;50.872;5.306;2022-10-16T02:55:56;0.73;;;0.30;;
25237;SDS011;13185;50.872;5.306;2022-10-16T02:58:21;0.55;;;0.30;;
25237;SDS011;13185;50.872;5.306;2022-10-16T03:00:47;1.75;;;0.65;;
25237;SDS011;13185;50.872;5.306;2022-10-16T03:03:12;0.60;;;0.30;;
25237;SDS011;13185;50.872;5.306;2022-10-16T03:05:38;0.40;;;0.30;;
25237;SDS011;13185;50.872;5.306;2022-10-16T03:08:03;0.80;;;0.40;;
25237;SDS011;13185;50.872;5.306;2022-10-16T03:10:29;2.47;;;0.68;;
25237;SDS011;13185;50.872;5.306;2022-10-16T03:12:54;2.05;;;0.50;;
25237;SDS011;13185;50.872;5.306;2022-10-16T03:15:20;1.60;;;0.30;;
25237;SDS011;13185;50.872;5.306;2022-10-16T03:17:45;1.65;;;0.50;;
25237;SDS011;13185;50.872;5.306;2022-10-16T03:20:10;1.25;;;0.30;;
25237;SDS011;13185;50.872;5.306;2022-10-16T03:22:36;1.88;;;0.32;;
25237;SDS011;13185;50.872;5.306;2022-10-16T03:25:02;0.70;;;0.30;;
25237;SDS011;13185;50.872;5.306;2022-10-16T03:27:27;0.73;;;0.30;;
25237;SDS011;13185;50.872;5.306;2022-10-16T03:29:53;1.67;;;0.50;;
25237;SDS011;13185;50.872;5.306;2022-10-16T03:32:18;1.35;;;0.50;;
25237;SDS011;13185;50.872;5.306;2022-10-16T03:34:45;1.92;;;0.40;;
25237;SDS011;13185;50.872;5.306;2022-10-16T03:37:10;2.53;;;0.60;;
25237;SDS011;13185;50.872;5.306;2022-10-16T03:39:36;0.75;;;0.43;;
25237;SDS011;13185;50.872;5.306;2022-10-16T03:42:01;0.65;;;0.30;;
25237;SDS011;13185;50.872;5.306;2022-10-16T03:44:26;3.53;;;1.35;;
25237;SDS011;13185;50.872;5.306;2022-10-16T03:46:52;6.15;;;0.50;;
25237;SDS011;13185;50.872;5.306;2022-10-16T03:49:17;2.53;;;0.70;;
25237;SDS011;13185;50.872;5.306;2022-10-16T03:51:43;0.52;;;0.40;;
25237;SDS011;13185;50.872;5.306;2022-10-16T03:54:09;1.17;;;0.70;;
25237;SDS011;13185;50.872;5.306;2022-10-16T03:56:35;1.85;;;0.60;;
25237;SDS011;13185;50.872;5.306;2022-10-16T03:59:00;1.63;;;0.52;;
25237;SDS011;13185;50.872;5.306;2022-10-16T04:01:26;0.77;;;0.50;;
25237;SDS011;13185;50.872;5.306;2022-10-16T04:03:51;1.73;;;0.50;;
25237;SDS011;13185;50.872;5.306;2022-10-16T04:06:17;2.00;;;0.60;;
25237;SDS011;13185;50.872;5.306;2022-10-16T04:08:42;1.05;;;0.70;;
25237;SDS011;13185;50.872;5.306;2022-10-16T04:11:08;2.35;;;0.80;;
25237;SDS011;13185;50.872;5.306;2022-10-16T04:13:34;2.20;;;0.90;;
25237;SDS011;13185;50.872;5.306;2022-10-16T04:15:59;1.83;;;0.65;;
25237;SDS011;13185;50.872;5.306;2022-10-16T04:18:24;1.58;;;0.80;;
25237;SDS011;13185;50.872;5.306;2022-10-16T04:20:52;2.38;;;0.43;;
25237;SDS011;13185;50.872;5.306;2022-10-16T04:23:18;1.17;;;0.75;;
25237;SDS011;13185;50.872;5.306;2022-10-16T04:25:43;5.15;;;0.95;;
25237;SDS011;13185;50.872;5.306;2022-10-16T04:28:09;1.35;;;0.70;;
25237;SDS011;13185;50.872;5.306;2022-10-16T04:30:34;2.00;;;0.80;;
25237;SDS011;13185;50.872;5.306;2022-10-16T04:33:00;4.38;;;0.77;;
25237;SDS011;13185;50.872;5.306;2022-10-16T04:35:25;1.40;;;0.98;;
25237;SDS011;13185;50.872;5.306;2022-10-16T04:37:50;1.10;;;0.60;;
25237;SDS011;13185;50.872;5.306;2022-10-16T04:40:16;2.58;;;0.95;;
25237;SDS011;13185;50.872;5.306;2022-10-16T04:42:42;1.50;;;0.70;;
25237;SDS011;13185;50.872;5.306;2022-10-16T04:45:08;1.85;;;0.88;;
25237;SDS011;13185;50.872;5.306;2022-10-16T04:47:33;2.75;;;0.80;;
25237;SDS011;13185;50.872;5.306;2022-10-16T04:49:59;1.77;;;0.93;;
25237;SDS011;13185;50.872;5.306;2022-10-16T04:52:26;1.85;;;0.80;;
25237;SDS011;13185;50.872;5.306;2022-10-16T04:54:51;3.22;;;0.90;;
25237;SDS011;13185;50.872;5.306;2022-10-16T04:57:17;2.17;;;1.08;;
25237;SDS011;13185;50.872;5.306;2022-10-16T04:59:43;1.88;;;1.10;;
25237;SDS011;13185;50.872;5.306;2022-10-16T05:02:08;3.15;;;1.27;;
25237;SDS011;13185;50.872;5.306;2022-10-16T05:04:34;2.83;;;1.35;;
25237;SDS011;13185;50.872;5.306;2022-10-16T05:06:59;1.35;;;0.90;;
25237;SDS011;13185;50.872;5.306;2022-10-16T05:09:25;3.65;;;1.27;;
25237;SDS011;13185;50.872;5.306;2022-10-16T05:11:50;2.10;;;1.00;;
25237;SDS011;13185;50.872;5.306;2022-10-16T05:14:16;4.30;;;1.00;;
25237;SDS011;13185;50.872;5.306;2022-10-16T05:16:41;2.17;;;1.23;;
25237;SDS011;13185;50.872;5.306;2022-10-16T05:19:07;3.20;;;1.20;;
25237;SDS011;13185;50.872;5.306;2022-10-16T05:21:32;1.50;;;1.23;;
25237;SDS011;13185;50.872;5.306;2022-10-16T05:23:57;3.75;;;1.20;;
25237;SDS011;13185;50.872;5.306;2022-10-16T05:26:23;4.97;;;1.00;;
25237;SDS011;13185;50.872;5.306;2022-10-16T05:28:49;2.40;;;1.20;;
25237;SDS011;13185;50.872;5.306;2022-10-16T05:31:14;4.38;;;1.23;;
25237;SDS011;13185;50.872;5.306;2022-10-16T05:33:40;3.60;;;1.10;;
25237;SDS011;13185;50.872;5.306;2022-10-16T05:36:06;1.55;;;1.00;;
25237;SDS011;13185;50.872;5.306;2022-10-16T05:38:34;3.58;;;1.38;;
25237;SDS011;13185;50.872;5.306;2022-10-16T05:41:00;3.45;;;1.50;;
25237;SDS011;13185;50.872;5.306;2022-10-16T05:43:27;3.67;;;1.50;;
25237;SDS011;13185;50.872;5.306;2022-10-16T05:45:56;5.65;;;1.35;;
25237;SDS011;13185;50.872;5.306;2022-10-16T05:48:27;3.35;;;1.52;;
25237;SDS011;13185;50.872;5.306;2022-10-16T05:50:59;1.83;;;1.33;;
25237;SDS011;13185;50.872;5.306;2022-10-16T05:53:27;3.00;;;1.45;;
25237;SDS011;13185;50.872;5.306;2022-10-16T05:55:54;2.75;;;1.30;;
25237;SDS011;13185;50.872;5.306;2022-10-16T05:58:21;3.00;;;1.23;;
25237;SDS011;13185;50.872;5.306;2022-10-16T06:03:43;2.72;;;1.40;;
25237;SDS011;13185;50.872;5.306;2022-10-16T06:06:09;4.25;;;1.23;;
25237;SDS011;13185;50.872;5.306;2022-10-16T06:08:36;6.35;;;1.50;;
25237;SDS011;13185;50.872;5.306;2022-10-16T06:11:03;3.97;;;1.38;;
25237;SDS011;13185;50.872;5.306;2022-10-16T06:13:30;6.60;;;1.00;;
25237;SDS011;13185;50.872;5.306;2022-10-16T06:15:56;2.20;;;1.10;;
25237;SDS011;13185;50.872;5.306;2022-10-16T06:18:23;3.67;;;1.20;;
25237;SDS011;13185;50.872;5.306;2022-10-16T06:20:49;2.25;;;0.90;;
25237;SDS011;13185;50.872;5.306;2022-10-16T06:23:14;1.55;;;0.90;;
25237;SDS011;13185;50.872;5.306;2022-10-16T06:25:40;2.65;;;1.35;;
25237;SDS011;13185;50.872;5.306;2022-10-16T06:28:05;8.43;;;1.58;;
25237;SDS011;13185;50.872;5.306;2022-10-16T06:30:31;3.33;;;0.82;;
25237;SDS011;13185;50.872;5.306;2022-10-16T06:32:56;5.90;;;1.10;;
25237;SDS011;13185;50.872;5.306;2022-10-16T06:35:22;4.13;;;1.27;;
25237;SDS011;13185;50.872;5.306;2022-10-16T06:37:47;3.03;;;1.02;;
25237;SDS011;13185;50.872;5.306;2022-10-16T06:40:13;2.30;;;1.10;;
25237;SDS011;13185;50.872;5.306;2022-10-16T06:42:39;3.10;;;1.23;;
25237;SDS011;13185;50.872;5.306;2022-10-16T06:45:05;1.88;;;1.30;;
25237;SDS011;13185;50.872;5.306;2022-10-16T06:47:31;3.15;;;1.65;;
25237;SDS011;13185;50.872;5.306;2022-10-16T06:49:56;3.53;;;1.13;;
25237;SDS011;13185;50.872;5.306;2022-10-16T06:52:22;3.03;;;1.50;;
25237;SDS011;13185;50.872;5.306;2022-10-16T06:54:47;3.38;;;1.33;;
25237;SDS011;13185;50.872;5.306;2022-10-16T06:57:13;4.18;;;1.48;;
25237;SDS011;13185;50.872;5.306;2022-10-16T06:59:38;2.45;;;1.15;;
25237;SDS011;13185;50.872;5.306;2022-10-16T07:02:04;4.25;;;1.48;;
25237;SDS011;13185;50.872;5.306;2022-10-16T07:04:30;5.15;;;1.65;;
25237;SDS011;13185;50.872;5.306;2022-10-16T07:06:55;7.28;;;1.38;;
25237;SDS011;13185;50.872;5.306;2022-10-16T07:09:21;5.10;;;1.80;;
25237;SDS011;13185;50.872;5.306;2022-10-16T07:11:46;4.32;;;1.23;;
25237;SDS011;13185;50.872;5.306;2022-10-16T07:14:16;4.22;;;1.55;;
25237;SDS011;13185;50.872;5.306;2022-10-16T07:16:43;3.28;;;1.48;;
25237;SDS011;13185;50.872;5.306;2022-10-16T07:19:08;4.35;;;1.85;;
25237;SDS011;13185;50.872;5.306;2022-10-16T07:21:36;2.95;;;1.48;;
25237;SDS011;13185;50.872;5.306;2022-10-16T07:24:04;1.42;;;1.15;;
25237;SDS011;13185;50.872;5.306;2022-10-16T07:26:32;1.80;;;1.30;;
25237;SDS011;13185;50.872;5.306;2022-10-16T07:28:59;4.75;;;1.35;;
25237;SDS011;13185;50.872;5.306;2022-10-16T07:31:25;2.45;;;1.05;;
25237;SDS011;13185;50.872;5.306;2022-10-16T07:33:51;2.70;;;1.20;;
25237;SDS011;13185;50.872;5.306;2022-10-16T07:36:17;2.90;;;1.30;;
25237;SDS011;13185;50.872;5.306;2022-10-16T07:38:44;2.60;;;1.42;;
25237;SDS011;13185;50.872;5.306;2022-10-16T07:41:11;3.67;;;1.40;;
25237;SDS011;13185;50.872;5.306;2022-10-16T07:43:38;3.67;;;1.33;;
25237;SDS011;13185;50.872;5.306;2022-10-16T07:46:04;4.65;;;1.10;;
25237;SDS011;13185;50.872;5.306;2022-10-16T07:48:31;1.20;;;1.10;;
25237;SDS011;13185;50.872;5.306;2022-10-16T07:50:59;5.72;;;1.15;;
25237;SDS011;13185;50.872;5.306;2022-10-16T07:53:26;2.60;;;1.00;;
25237;SDS011;13185;50.872;5.306;2022-10-16T07:55:52;1.52;;;0.90;;
25237;SDS011;13185;50.872;5.306;2022-10-16T07:58:17;1.63;;;0.95;;
25237;SDS011;13185;50.872;5.306;2022-10-16T08:00:43;1.80;;;0.88;;
25237;SDS011;13185;50.872;5.306;2022-10-16T08:03:08;2.40;;;0.95;;
25237;SDS011;13185;50.872;5.306;2022-10-16T08:05:34;2.97;;;0.95;;
25237;SDS011;13185;50.872;5.306;2022-10-16T08:08:00;1.98;;;1.10;;
25237;SDS011;13185;50.872;5.306;2022-10-16T08:10:26;3.33;;;0.80;;
25237;SDS011;13185;50.872;5.306;2022-10-16T08:12:52;3.15;;;1.58;;
25237;SDS011;13185;50.872;5.306;2022-10-16T08:15:18;6.13;;;1.52;;
25237;SDS011;13185;50.872;5.306;2022-10-16T08:17:44;3.30;;;1.00;;
25237;SDS011;13185;50.872;5.306;2022-10-16T08:20:18;6.32;;;0.90;;
25237;SDS011;13185;50.872;5.306;2022-10-16T08:22:44;5.57;;;1.40;;
25237;SDS011;13185;50.872;5.306;2022-10-16T08:25:09;4.00;;;0.70;;
25237;SDS011;13185;50.872;5.306;2022-10-16T08:27:34;4.63;;;1.70;;
25237;SDS011;13185;50.872;5.306;2022-10-16T08:30:00;6.95;;;0.95;;
25237;SDS011;13185;50.872;5.306;2022-10-16T08:32:25;4.82;;;2.53;;
25237;SDS011;13185;50.872;5.306;2022-10-16T08:34:51;4.68;;;1.48;;
25237;SDS011;13185;50.872;5.306;2022-10-16T08:37:16;3.17;;;1.20;;
25237;SDS011;13185;50.872;5.306;2022-10-16T08:39:42;4.57;;;1.67;;
25237;SDS011;13185;50.872;5.306;2022-10-16T08:47:41;3.85;;;1.13;;
25237;SDS011;13185;50.872;5.306;2022-10-16T08:50:16;3.40;;;1.45;;
25237;SDS011;13185;50.872;5.306;2022-10-16T08:52:48;2.40;;;1.00;;
25237;SDS011;13185;50.872;5.306;2022-10-16T08:55:19;2.88;;;0.70;;
25237;SDS011;13185;50.872;5.306;2022-10-16T08:57:54;4.25;;;1.33;;
25237;SDS011;13185;50.872;5.306;2022-10-16T09:00:19;2.00;;;0.95;;
25237;SDS011;13185;50.872;5.306;2022-10-16T09:03:04;4.68;;;0.85;;
25237;SDS011;13185;50.872;5.306;2022-10-16T09:05:44;2.58;;;0.60;;
25237;SDS011;13185;50.872;5.306;2022-10-16T09:13:58;6.63;;;0.70;;
25237;SDS011;13185;50.872;5.306;2022-10-16T09:16:36;6.80;;;0.95;;
25237;SDS011;13185;50.872;5.306;2022-10-16T09:21:44;7.53;;;1.40;;
25237;SDS011;13185;50.872;5.306;2022-10-16T09:24:15;5.53;;;1.35;;
25237;SDS011;13185;50.872;5.306;2022-10-16T09:26:45;5.32;;;1.60;;
25237;SDS011;13185;50.872;5.306;2022-10-16T09:29:12;2.72;;;1.60;;
25237;SDS011;13185;50.872;5.306;2022-10-16T09:31:39;4.50;;;1.00;;
25237;SDS011;13185;50.872;5.306;2022-10-16T09:34:05;4.00;;;0.80;;
25237;SDS011;13185;50.872;5.306;2022-10-16T09:36:41;1.02;;;0.47;;
25237;SDS011;13185;50.872;5.306;2022-10-16T09:39:10;2.67;;;1.13;;
25237;SDS011;13185;50.872;5.306;2022-10-16T09:41:39;4.40;;;1.17;;
25237;SDS011;13185;50.872;5.306;2022-10-16T09:44:17;1.35;;;0.70;;
25237;SDS011;13185;50.872;5.306;2022-10-16T09:47:10;4.72;;;0.95;;
25237;SDS011;13185;50.872;5.306;2022-10-16T09:49:42;7.57;;;1.13;;
25237;SDS011;13185;50.872;5.306;2022-10-16T09:52:20;4.72;;;1.20;;
25237;SDS011;13185;50.872;5.306;2022-10-16T09:54:50;3.97;;;1.20;;
25237;SDS011;13185;50.872;5.306;2022-10-16T09:57:19;3.83;;;0.70;;
25237;SDS011;13185;50.872;5.306;2022-10-16T09:59:55;4.30;;;0.60;;
25237;SDS011;13185;50.872;5.306;2022-10-16T10:02:29;4.60;;;0.70;;
25237;SDS011;13185;50.872;5.306;2022-10-16T10:05:05;5.93;;;1.07;;
25237;SDS011;13185;50.872;5.306;2022-10-16T10:07:42;5.22;;;0.98;;
25237;SDS011;13185;50.872;5.306;2022-10-16T10:10:21;4.90;;;1.15;;
25237;SDS011;13185;50.872;5.306;2022-10-16T10:12:49;2.85;;;0.88;;
25237;SDS011;13185;50.872;5.306;2022-10-16T10:15:14;6.05;;;0.73;;
25237;SDS011;13185;50.872;5.306;2022-10-16T10:17:47;4.65;;;0.90;;
25237;SDS011;13185;50.872;5.306;2022-10-16T10:22:52;5.72;;;1.25;;
25237;SDS011;13185;50.872;5.306;2022-10-16T10:31:00;3.33;;;0.55;;
25237;SDS011;13185;50.872;5.306;2022-10-16T10:33:47;3.58;;;0.77;;
25237;SDS011;13185;50.872;5.306;2022-10-16T10:39:09;3.25;;;0.75;;
25237;SDS011;13185;50.872;5.306;2022-10-16T10:41:48;3.30;;;0.57;;
25237;SDS011;13185;50.872;5.306;2022-10-16T10:47:37;4.85;;;0.50;;
25237;SDS011;13185;50.872;5.306;2022-10-16T10:55:46;2.28;;;0.52;;
25237;SDS011;13185;50.872;5.306;2022-10-16T11:01:13;4.55;;;0.90;;
25237;SDS011;13185;50.872;5.306;2022-10-16T11:06:43;1.13;;;0.30;;
25237;SDS011;13185;50.872;5.306;2022-10-16T11:09:44;2.00;;;0.50;;
25237;SDS011;13185;50.872;5.306;2022-10-16T11:12:22;2.47;;;0.95;;
25237;SDS011;13185;50.872;5.306;2022-10-16T11:15:02;4.32;;;1.50;;
25237;SDS011;13185;50.872;5.306;2022-10-16T11:17:35;3.05;;;1.00;;
25237;SDS011;13185;50.872;5.306;2022-10-16T11:20:14;2.60;;;0.47;;
25237;SDS011;13185;50.872;5.306;2022-10-16T11:23:00;2.45;;;0.80;;
25237;SDS011;13185;50.872;5.306;2022-10-16T11:25:33;6.15;;;2.30;;
25237;SDS011;13185;50.872;5.306;2022-10-16T11:28:08;5.35;;;1.67;;
25237;SDS011;13185;50.872;5.306;2022-10-16T11:34:01;6.15;;;3.25;;
25237;SDS011;13185;50.872;5.306;2022-10-16T11:39:24;4.78;;;1.40;;
25237;SDS011;13185;50.872;5.306;2022-10-16T11:41:53;2.50;;;0.55;;
25237;SDS011;13185;50.872;5.306;2022-10-16T11:44:32;4.65;;;0.52;;
25237;SDS011;13185;50.872;5.306;2022-10-16T11:47:09;1.70;;;0.30;;
25237;SDS011;13185;50.872;5.306;2022-10-16T11:49:44;1.75;;;0.70;;
25237;SDS011;13185;50.872;5.306;2022-10-16T11:52:33;3.08;;;0.90;;
25237;SDS011;13185;50.872;5.306;2022-10-16T11:55:09;2.65;;;0.90;;
25237;SDS011;13185;50.872;5.306;2022-10-16T11:57:45;1.80;;;0.68;;
25237;SDS011;13185;50.872;5.306;2022-10-16T12:03:11;3.10;;;0.28;;
25237;SDS011;13185;50.872;5.306;2022-10-16T12:08:30;2.78;;;0.65;;
25237;SDS011;13185;50.872;5.306;2022-10-16T12:11:08;2.15;;;0.30;;
25237;SDS011;13185;50.872;5.306;2022-10-16T12:13:46;1.65;;;0.45;;
25237;SDS011;13185;50.872;5.306;2022-10-16T12:18:43;2.15;;;0.45;;
25237;SDS011;13185;50.872;5.306;2022-10-16T12:21:10;5.20;;;0.73;;
25237;SDS011;13185;50.872;5.306;2022-10-16T12:23:47;2.60;;;0.20;;
25237;SDS011;13185;50.872;5.306;2022-10-16T12:29:14;2.17;;;0.40;;
25237;SDS011;13185;50.872;5.306;2022-10-16T12:31:47;4.65;;;0.85;;
25237;SDS011;13185;50.872;5.306;2022-10-16T12:34:20;1.25;;;0.40;;
25237;SDS011;13185;50.872;5.306;2022-10-16T12:36:47;0.85;;;0.30;;
25237;SDS011;13185;50.872;5.306;2022-10-16T12:39:23;1.27;;;0.40;;
25237;SDS011;13185;50.872;5.306;2022-10-16T12:42:04;2.13;;;0.43;;
25237;SDS011;13185;50.872;5.306;2022-10-16T12:44:32;1.15;;;0.30;;
25237;SDS011;13185;50.872;5.306;2022-10-16T12:46:59;2.47;;;0.82;;
25237;SDS011;13185;50.872;5.306;2022-10-16T12:54:58;1.63;;;0.30;;
25237;SDS011;13185;50.872;5.306;2022-10-16T13:00:21;1.77;;;0.30;;
25237;SDS011;13185;50.872;5.306;2022-10-16T13:11:11;2.33;;;0.52;;
25237;SDS011;13185;50.872;5.306;2022-10-16T13:19:23;2.60;;;0.30;;
25237;SDS011;13185;50.872;5.306;2022-10-16T13:22:05;0.50;;;0.30;;
25237;SDS011;13185;50.872;5.306;2022-10-16T13:24:47;3.63;;;0.70;;
25237;SDS011;13185;50.872;5.306;2022-10-16T13:27:36;1.05;;;0.30;;
25237;SDS011;13185;50.872;5.306;2022-10-16T13:30:26;1.70;;;0.30;;
25237;SDS011;13185;50.872;5.306;2022-10-16T13:33:01;3.10;;;0.30;;
25237;SDS011;13185;50.872;5.306;2022-10-16T13:35:49;3.72;;;0.40;;
25237;SDS011;13185;50.872;5.306;2022-10-16T13:43:25;1.85;;;0.57;;
25237;SDS011;13185;50.872;5.306;2022-10-16T13:46:07;0.90;;;0.20;;
25237;SDS011;13185;50.872;5.306;2022-10-16T13:48:37;1.80;;;0.50;;
25237;SDS011;13185;50.872;5.306;2022-10-16T13:51:16;1.35;;;0.17;;
25237;SDS011;13185;50.872;5.306;2022-10-16T13:53:43;0.80;;;0.25;;
25237;SDS011;13185;50.872;5.306;2022-10-16T13:56:14;1.27;;;0.20;;
25237;SDS011;13185;50.872;5.306;2022-10-16T13:58:44;4.38;;;0.30;;
25237;SDS011;13185;50.872;5.306;2022-10-16T14:01:17;0.85;;;0.20;;
25237;SDS011;13185;50.872;5.306;2022-10-16T14:03:46;1.85;;;0.30;;
25237;SDS011;13185;50.872;5.306;2022-10-16T14:06:13;5.10;;;0.20;;
25237;SDS011;13185;50.872;5.306;2022-10-16T14:08:43;3.83;;;0.40;;
25237;SDS011;13185;50.872;5.306;2022-10-16T14:11:11;3.55;;;0.50;;
25237;SDS011;13185;50.872;5.306;2022-10-16T14:13:38;1.75;;;0.28;;
25237;SDS011;13185;50.872;5.306;2022-10-16T14:16:09;1.77;;;0.25;;
25237;SDS011;13185;50.872;5.306;2022-10-16T14:18:36;2.35;;;0.08;;
25237;SDS011;13185;50.872;5.306;2022-10-16T14:21:04;1.95;;;0.20;;
25237;SDS011;13185;50.872;5.306;2022-10-16T14:23:37;1.75;;;0.20;;
25237;SDS011;13185;50.872;5.306;2022-10-16T14:28:38;2.80;;;0.40;;
25237;SDS011;13185;50.872;5.306;2022-10-16T14:33:51;3.35;;;0.70;;
25237;SDS011;13185;50.872;5.306;2022-10-16T14:36:16;1.52;;;0.30;;
25237;SDS011;13185;50.872;5.306;2022-10-16T14:41:27;1.15;;;0.25;;
25237;SDS011;13185;50.872;5.306;2022-10-16T14:43:55;0.95;;;0.30;;
25237;SDS011;13185;50.872;5.306;2022-10-16T14:46:28;3.33;;;0.30;;
25237;SDS011;13185;50.872;5.306;2022-10-16T14:49:19;3.97;;;0.40;;
25237;SDS011;13185;50.872;5.306;2022-10-16T14:51:45;0.98;;;0.22;;
25237;SDS011;13185;50.872;5.306;2022-10-16T14:54:11;1.40;;;0.30;;
25237;SDS011;13185;50.872;5.306;2022-10-16T14:56:51;2.22;;;0.20;;
25237;SDS011;13185;50.872;5.306;2022-10-16T14:59:28;2.20;;;0.20;;
25237;SDS011;13185;50.872;5.306;2022-10-16T15:01:57;1.75;;;0.10;;
25237;SDS011;13185;50.872;5.306;2022-10-16T15:04:23;2.03;;;0.30;;
25237;SDS011;13185;50.872;5.306;2022-10-16T15:06:49;3.22;;;0.20;;
25237;SDS011;13185;50.872;5.306;2022-10-16T15:09:14;0.60;;;0.10;;
25237;SDS011;13185;50.872;5.306;2022-10-16T15:11:40;0.85;;;0.22;;
25237;SDS011;13185;50.872;5.306;2022-10-16T15:14:08;1.30;;;0.30;;
25237;SDS011;13185;50.872;5.306;2022-10-16T15:16:39;2.63;;;0.20;;
25237;SDS011;13185;50.872;5.306;2022-10-16T15:19:04;1.27;;;0.10;;
25237;SDS011;13185;50.872;5.306;2022-10-16T15:21:30;0.70;;;0.30;;
25237;SDS011;13185;50.872;5.306;2022-10-16T15:23:57;3.40;;;0.30;;
25237;SDS011;13185;50.872;5.306;2022-10-16T15:26:27;2.05;;;0.30;;
25237;SDS011;13185;50.872;5.306;2022-10-16T15:28:54;2.67;;;0.40;;
25237;SDS011;13185;50.872;5.306;2022-10-16T15:31:20;3.33;;;0.50;;
25237;SDS011;13185;50.872;5.306;2022-10-16T15:33:49;1.55;;;0.40;;
25237;SDS011;13185;50.872;5.306;2022-10-16T15:36:24;2.70;;;0.20;;
25237;SDS011;13185;50.872;5.306;2022-10-16T15:38:53;1.52;;;0.20;;
25237;SDS011;13185;50.872;5.306;2022-10-16T15:41:19;1.10;;;0.30;;
25237;SDS011;13185;50.872;5.306;2022-10-16T15:43:47;2.47;;;0.40;;
25237;SDS011;13185;50.872;5.306;2022-10-16T15:46:14;2.38;;;0.30;;
25237;SDS011;13185;50.872;5.306;2022-10-16T15:48:40;1.85;;;0.20;;
25237;SDS011;13185;50.872;5.306;2022-10-16T15:51:06;3.25;;;0.30;;
25237;SDS011;13185;50.872;5.306;2022-10-16T15:53:32;3.95;;;0.73;;
25237;SDS011;13185;50.872;5.306;2022-10-16T15:56:08;2.03;;;0.30;;
25237;SDS011;13185;50.872;5.306;2022-10-16T15:58:36;2.28;;;0.50;;
25237;SDS011;13185;50.872;5.306;2022-10-16T16:01:02;0.88;;;0.30;;
25237;SDS011;13185;50.872;5.306;2022-10-16T16:03:31;3.75;;;0.95;;
25237;SDS011;13185;50.872;5.306;2022-10-16T16:05:57;2.58;;;0.45;;
25237;SDS011;13185;50.872;5.306;2022-10-16T16:08:23;2.80;;;0.50;;
25237;SDS011;13185;50.872;5.306;2022-10-16T16:11:02;1.88;;;0.40;;
25237;SDS011;13185;50.872;5.306;2022-10-16T16:13:33;1.60;;;0.38;;
25237;SDS011;13185;50.872;5.306;2022-10-16T16:15:59;1.75;;;0.68;;
25237;SDS011;13185;50.872;5.306;2022-10-16T16:18:25;1.75;;;0.60;;
25237;SDS011;13185;50.872;5.306;2022-10-16T16:20:51;1.00;;;0.43;;
25237;SDS011;13185;50.872;5.306;2022-10-16T16:23:16;2.33;;;0.77;;
25237;SDS011;13185;50.872;5.306;2022-10-16T16:25:42;2.28;;;1.10;;
25237;SDS011;13185;50.872;5.306;2022-10-16T16:28:08;2.10;;;1.02;;
25237;SDS011;13185;50.872;5.306;2022-10-16T16:30:35;2.15;;;1.50;;
25237;SDS011;13185;50.872;5.306;2022-10-16T16:33:02;2.55;;;1.70;;
25237;SDS011;13185;50.872;5.306;2022-10-16T16:35:27;3.78;;;1.90;;
25237;SDS011;13185;50.872;5.306;2022-10-16T16:37:53;2.58;;;1.80;;
25237;SDS011;13185;50.872;5.306;2022-10-16T16:40:18;4.75;;;1.85;;
25237;SDS011;13185;50.872;5.306;2022-10-16T16:42:43;2.55;;;1.70;;
25237;SDS011;13185;50.872;5.306;2022-10-16T16:45:09;6.45;;;2.22;;
25237;SDS011;13185;50.872;5.306;2022-10-16T16:47:35;4.13;;;1.75;;
25237;SDS011;13185;50.872;5.306;2022-10-16T16:50:00;4.43;;;1.42;;
25237;SDS011;13185;50.872;5.306;2022-10-16T16:52:29;3.30;;;1.52;;